KLOU/LOU METAR and TAF weather

Enter ICAO airport designator
Station Type Date Time Source
KLOU METAR 2019/06/17 14:38 UTC NOAA

KLOU 171438Z 19004KT 10SM BKN008 BKN110 23/21 A2998 RMK AO2 CIG 006V010 T02330206


Station Type Date Time Source
KLOU Decoded METAR 2019/06/17 14:38 UTC NOAA

BOWMAN FIELD, KY, United States (KLOU) 38-14N 085-40W 164M
Jun 17, 2019 - 10:38 AM EDT / 2019.06.17 1438 UTC
Wind: from the S (190 degrees) at 5 MPH (4 KT):0
Visibility: 10 mile(s):0
Sky conditions: mostly cloudy
Temperature: 73.9 F (23.3 C)
Dew Point: 69.1 F (20.6 C)
Relative Humidity: 84%
Pressure (altimeter): 29.98 in. Hg (1015 hPa)
ob: KLOU 171438Z 19004KT 10SM BKN008 BKN110 23/21 A2998 RMK AO2 CIG 006V010 T02330206
cycle: 14

Station Type Date Time Source
KLOU TAF UTC NOAA

Error!

Example: see airport list